Time;durP1;ratioP1;P1;durP2;ratioP2;P2;SDS_P1;SDS_P2;PMS_P1;PMS_P2;Temp;Humidity;BMP_temperature;BMP_pressure;BME280_temperature;BME280_humidity;BME280_pressure;Samples;Min_cycle;Max_cycle;Signal;HPM_P1;HPM_P2
2021/03/24 00:01:52;;;;;;;15.85;10.68;;;5.40;63.90;;;;;;5086419;28;20480;-68
2021/03/24 00:04:17;;;;;;;;;;;5.40;63.90;;;;;;5089050;28;20043;-68
2021/03/24 00:06:43;;;;;;;16.90;10.43;;;5.40;64.20;;;;;;5091770;28;20141;-68
2021/03/24 00:09:10;;;;;;;;;;;5.50;64.10;;;;;;5092210;28;20024;-68
2021/03/24 00:11:36;;;;;;;17.98;11.77;;;5.50;63.90;;;;;;5091882;28;20036;-68
2021/03/24 00:14:03;;;;;;;17.23;11.05;;;5.60;63.80;;;;;;5091882;28;20055;-68
2021/03/24 00:16:28;;;;;;;20.38;11.52;;;5.60;63.70;;;;;;5090415;28;20085;-67
2021/03/24 00:18:54;;;;;;;;;;;5.60;63.80;;;;;;5092234;28;20039;-67
2021/03/24 00:21:20;;;;;;;21.70;12.45;;;5.60;63.80;;;;;;5091542;28;19908;-68
2021/03/24 00:23:45;;;;;;;;;;;5.60;63.90;;;;;;5092168;28;20024;-66
2021/03/24 00:26:11;;;;;;;19.52;11.50;;;5.60;64.10;;;;;;5091486;28;19915;-67
2021/03/24 00:28:36;;;;;;;;;;;5.70;64.00;;;;;;5092149;28;20032;-67
2021/03/24 00:31:02;;;;;;;20.27;11.85;;;5.50;64.10;;;;;;5091668;28;19908;-68
2021/03/24 00:33:28;;;;;;;21.85;13.32;;;5.50;64.20;;;;;;5091383;28;20031;-67
2021/03/24 00:35:54;;;;;;;18.60;11.50;;;5.50;64.40;;;;;;5091479;28;20093;-68
2021/03/24 00:38:20;;;;;;;;;;;5.50;64.40;;;;;;5090873;28;20832;-68
2021/03/24 00:40:50;;;;;;;22.30;12.60;;;5.40;64.80;;;;;;5091289;28;19911;-67
2021/03/24 00:43:16;;;;;;;17.95;12.48;;;5.40;64.90;;;;;;5091218;28;20059;-67
2021/03/24 00:45:41;;;;;;;;;;;5.40;64.90;;;;;;5091632;28;20064;-67
2021/03/24 00:48:15;;;;;;;23.17;12.93;;;5.30;65.00;;;;;;5091071;28;19962;-68
2021/03/24 00:50:41;;;;;;;21.75;12.18;;;5.30;65.00;;;;;;5091137;28;20396;-67
2021/03/24 00:53:06;;;;;;;;;;;5.30;65.30;;;;;;5091358;28;20031;-67
2021/03/24 00:55:32;;;;;;;19.33;12.50;;;5.30;65.30;;;;;;5090920;28;19915;-68
2021/03/24 00:57:57;;;;;;;;;;;5.30;65.40;;;;;;5091534;28;20028;-67
2021/03/24 01:00:31;;;;;;;19.33;12.57;;;5.30;65.50;;;;;;5090860;28;19976;-68
2021/03/24 01:02:56;;;;;;;21.20;13.13;;;5.30;65.40;;;;;;5090972;28;20024;-67
2021/03/24 01:05:22;;;;;;;;;;;5.30;65.40;;;;;;5091186;28;20077;-68
2021/03/24 01:08:02;;;;;;;21.08;12.10;;;5.30;65.50;;;;;;5090787;28;19958;-67
2021/03/24 01:10:31;;;;;;;21.15;12.80;;;5.40;65.60;;;;;;5090944;28;20032;-67
2021/03/24 01:12:57;;;;;;;21.73;13.00;;;5.40;65.30;;;;;;5089419;28;20035;-67
2021/03/24 01:15:24;;;;;;;19.92;11.85;;;5.40;65.20;;;;;;5090059;28;20027;-67
2021/03/24 01:17:52;;;;;;;22.40;13.75;;;5.50;65.30;;;;;;5090281;28;20016;-67
2021/03/24 01:20:18;;;;;;;20.27;12.73;;;5.50;65.20;;;;;;5090733;28;20032;-67
2021/03/24 01:22:44;;;;;;;18.58;12.18;;;5.60;65.00;;;;;;5090530;28;20038;-67
2021/03/24 01:25:10;;;;;;;;;;;5.60;65.00;;;;;;5090820;28;20032;-67
2021/03/24 01:27:36;;;;;;;22.60;11.95;;;5.60;65.10;;;;;;5090503;28;20091;-66
2021/03/24 01:30:02;;;;;;;;;;;5.60;65.00;;;;;;5090977;28;20141;-67
2021/03/24 01:32:27;;;;;;;20.58;13.57;;;5.60;65.10;;;;;;5090350;28;20390;-68
2021/03/24 01:34:53;;;;;;;;;;;5.60;65.10;;;;;;5090652;28;20028;-67
2021/03/24 01:37:19;;;;;;;20.55;13.48;;;5.60;65.10;;;;;;5090147;28;19911;-68
2021/03/24 01:39:44;;;;;;;;;;;5.60;65.10;;;;;;5090696;28;20163;-68
2021/03/24 01:42:10;;;;;;;21.63;13.77;;;5.60;65.20;;;;;;5090078;28;19923;-67
2021/03/24 01:44:54;;;;;;;;;;;5.60;65.20;;;;;;5090514;28;20024;-67
2021/03/24 01:47:20;;;;;;;22.38;13.18;;;5.60;65.30;;;;;;5089764;28;19990;-67
2021/03/24 01:49:45;;;;;;;;;;;5.70;65.30;;;;;;5090581;28;20476;-65
2021/03/24 01:52:11;;;;;;;20.60;13.40;;;5.60;65.30;;;;;;5089894;28;20364;-68
2021/03/24 01:54:40;;;;;;;20.13;13.05;;;5.60;65.30;;;;;;5088537;28;20035;-68
2021/03/24 01:57:22;;;;;;;23.15;14.35;;;5.70;65.40;;;;;;5089752;28;20044;-67
2021/03/24 01:59:51;;;;;;;20.80;13.70;;;5.70;65.30;;;;;;5089910;28;20403;-68
2021/03/24 02:02:24;;;;;;;20.08;13.43;;;5.60;65.30;;;;;;5089785;28;20028;-66
2021/03/24 02:04:51;;;;;;;23.50;13.60;;;5.60;65.40;;;;;;5089745;28;20089;-68
2021/03/24 02:07:23;;;;;;;23.90;14.20;;;5.60;65.50;;;;;;5089642;28;20127;-68
2021/03/24 02:09:58;;;;;;;24.63;14.75;;;5.60;65.50;;;;;;5089780;28;20035;-67
2021/03/24 02:12:33;;;;;;;21.37;14.93;;;5.60;65.50;;;;;;5089952;28;20127;-66
2021/03/24 02:15:08;;;;;;;24.80;15.05;;;5.70;65.60;;;;;;5089495;28;20032;-69
2021/03/24 02:17:39;;;;;;;21.98;14.35;;;5.60;65.50;;;;;;5089405;28;20092;-68
2021/03/24 02:20:39;;;;;;;22.10;14.27;;;5.60;65.70;;;;;;5089565;28;20038;-68
2021/03/24 02:23:40;;;;;;;24.95;15.32;;;5.70;65.80;;;;;;5087763;28;20119;-68
2021/03/24 02:26:17;;;;;;;23.58;15.23;;;5.60;66.00;;;;;;5089151;28;20032;-68
2021/03/24 02:28:44;;;;;;;;;;;5.60;66.40;;;;;;5089702;28;20066;-68
2021/03/24 02:31:12;;;;;;;21.40;14.75;;;5.50;66.60;;;;;;5089129;28;19907;-68
2021/03/24 02:33:40;;;;;;;22.13;15.10;;;5.50;66.90;;;;;;5089002;28;20416;-68
2021/03/24 02:36:11;;;;;;;24.50;15.63;;;5.50;67.00;;;;;;5088932;28;20054;-68
2021/03/24 02:38:40;;;;;;;25.73;16.35;;;5.40;66.90;;;;;;5089033;28;20051;-68
2021/03/24 02:41:07;;;;;;;22.35;14.63;;;5.40;67.20;;;;;;5088876;28;20040;-68
2021/03/24 02:43:35;;;;;;;21.25;14.63;;;5.40;67.10;;;;;;5088905;28;20112;-68
2021/03/24 02:46:03;;;;;;;24.90;15.73;;;5.40;67.20;;;;;;5088810;28;20024;-68
2021/03/24 02:48:33;;;;;;;25.02;17.50;;;5.40;67.30;;;;;;5088942;28;20169;-68
2021/03/24 02:51:00;;;;;;;23.95;15.45;;;5.40;67.50;;;;;;5088880;28;20063;-68
2021/03/24 02:53:28;;;;;;;24.35;16.13;;;5.40;67.40;;;;;;5088718;28;20114;-68
2021/03/24 02:55:57;;;;;;;24.10;15.73;;;5.40;67.50;;;;;;5088777;28;20024;-68
2021/03/24 02:58:23;;;;;;;25.70;17.35;;;5.40;67.70;;;;;;5088924;28;20075;-67
2021/03/24 03:00:49;;;;;;;;;;;5.40;67.70;;;;;;5087934;28;20032;-67
2021/03/24 03:03:21;;;;;;;26.65;16.08;;;5.40;67.80;;;;;;5087264;28;19976;-68
2021/03/24 03:05:48;;;;;;;25.35;15.35;;;5.40;67.60;;;;;;5088568;28;20024;-68
2021/03/24 03:08:19;;;;;;;28.17;16.92;;;5.40;67.20;;;;;;5087120;28;20036;-68
2021/03/24 03:10:44;;;;;;;21.08;13.95;;;5.50;67.00;;;;;;5088535;28;20034;-67
2021/03/24 03:13:10;;;;;;;;;;;5.50;66.90;;;;;;5088751;28;20406;-67
2021/03/24 03:15:51;;;;;;;25.42;15.50;;;5.50;66.90;;;;;;5088372;28;19915;-67
2021/03/24 03:18:28;;;;;;;24.70;15.90;;;5.50;66.90;;;;;;5088414;28;20618;-67
2021/03/24 03:21:00;;;;;;;25.83;15.50;;;5.40;67.00;;;;;;5086905;28;20056;-68
2021/03/24 03:23:28;;;;;;;25.55;15.88;;;5.50;67.00;;;;;;5088229;28;20042;-68
2021/03/24 03:26:10;;;;;;;25.25;16.02;;;5.40;67.20;;;;;;5088102;28;20032;-68
2021/03/24 03:28:38;;;;;;;25.42;16.60;;;5.40;67.30;;;;;;5088277;28;20028;-68
2021/03/24 03:31:12;;;;;;;24.10;14.98;;;5.40;67.50;;;;;;5088269;28;20051;-68
2021/03/24 03:33:41;;;;;;;33.70;17.52;;;5.40;67.70;;;;;;5088100;28;20027;-67
2021/03/24 03:36:07;;;;;;;36.15;18.30;;;5.40;67.90;;;;;;5088143;28;20395;-68
2021/03/24 03:38:35;;;;;;;37.25;19.10;;;5.30;67.90;;;;;;5087965;28;20038;-67
2021/03/24 03:41:03;;;;;;;33.42;18.45;;;5.30;68.00;;;;;;5087901;28;20044;-67
2021/03/24 03:43:29;;;;;;;38.85;17.88;;;5.40;68.20;;;;;;5087898;28;20036;-68
2021/03/24 03:45:56;;;;;;;;;;;5.40;68.00;;;;;;5088465;28;20027;-66
2021/03/24 03:48:22;;;;;;;29.17;16.55;;;5.40;68.00;;;;;;5088180;28;19908;-68
2021/03/24 03:50:51;;;;;;;;;;;5.40;68.30;;;;;;5088505;28;20032;-68
2021/03/24 03:53:39;;;;;;;30.92;16.23;;;5.40;68.30;;;;;;5087641;28;19954;-68
2021/03/24 03:56:18;;;;;;;34.53;18.05;;;5.40;68.50;;;;;;5087796;28;20036;-68
2021/03/24 03:58:50;;;;;;;26.52;16.35;;;5.30;68.40;;;;;;5087834;28;20119;-68
2021/03/24 04:01:24;;;;;;;25.65;15.93;;;5.30;68.40;;;;;;5087590;28;20020;-68
2021/03/24 04:04:02;;;;;;;39.13;19.90;;;5.30;68.40;;;;;;5087784;28;20109;-68
2021/03/24 04:06:36;;;;;;;35.55;18.70;;;5.30;68.50;;;;;;5088032;28;20028;-68
2021/03/24 04:09:03;;;;;;;34.53;16.73;;;5.30;68.40;;;;;;5087800;28;20024;-68
2021/03/24 04:11:33;;;;;;;31.95;18.55;;;5.30;68.60;;;;;;5087666;28;20484;-68
2021/03/24 04:14:02;;;;;;;38.33;20.23;;;5.20;68.60;;;;;;5087654;28;20028;-68
2021/03/24 04:16:28;;;;;;;28.30;17.83;;;5.20;68.60;;;;;;5087568;28;20508;-68
2021/03/24 04:19:00;;;;;;;24.38;16.08;;;5.30;69.40;;;;;;5087657;28;20036;-67
2021/03/24 04:21:28;;;;;;;26.42;16.58;;;5.20;68.80;;;;;;5086328;28;20445;-68
2021/03/24 04:24:22;;;;;;;30.98;18.63;;;5.20;68.90;;;;;;5086523;28;20040;-68
2021/03/24 04:26:52;;;;;;;27.25;16.42;;;5.20;69.10;;;;;;5087545;28;20036;-68
2021/03/24 04:29:27;;;;;;;25.75;15.63;;;5.20;69.10;;;;;;5087497;28;20077;-68
2021/03/24 04:31:57;;;;;;;28.83;15.80;;;5.20;69.70;;;;;;5087726;28;20042;-67
2021/03/24 04:34:24;;;;;;;19.83;13.20;;;5.20;69.10;;;;;;5087569;28;20039;-67
2021/03/24 04:36:57;;;;;;;22.40;13.43;;;5.10;68.90;;;;;;5087909;28;20035;-66
2021/03/24 04:39:29;;;;;;;23.15;13.98;;;5.10;68.90;;;;;;5087420;28;20680;-68
2021/03/24 04:41:57;;;;;;;20.88;13.15;;;5.00;69.70;;;;;;5087368;28;20121;-68
2021/03/24 04:44:27;;;;;;;23.23;14.65;;;5.00;69.20;;;;;;5087476;28;20024;-67
2021/03/24 04:47:03;;;;;;;54.65;24.10;;;5.00;69.40;;;;;;5087403;28;20032;-68
2021/03/24 04:49:34;;;;;;;34.60;17.15;;;4.90;70.00;;;;;;5087380;28;20024;-68
2021/03/24 04:52:02;;;;;;;33.15;17.40;;;4.90;69.90;;;;;;5089221;28;20028;-68
2021/03/24 04:54:35;;;;;;;26.83;15.68;;;4.90;70.20;;;;;;5090951;28;20385;-68
2021/03/24 04:57:08;;;;;;;21.08;14.23;;;5.00;70.60;;;;;;5091075;28;20032;-67
2021/03/24 04:59:37;;;;;;;21.98;13.00;;;4.90;70.40;;;;;;5091050;28;20035;-68
2021/03/24 05:02:09;;;;;;;23.42;14.57;;;4.90;70.50;;;;;;5090908;28;20081;-67
2021/03/24 05:04:53;;;;;;;21.27;13.35;;;4.90;70.70;;;;;;5090861;28;20043;-67
2021/03/24 05:07:39;;;;;;;17.73;12.60;;;4.90;70.50;;;;;;5090752;28;20047;-68
2021/03/24 05:10:12;;;;;;;28.00;16.10;;;4.90;70.60;;;;;;5090925;28;20400;-67
2021/03/24 05:12:42;;;;;;;27.45;16.88;;;4.90;70.90;;;;;;5090996;28;20039;-67
2021/03/24 05:15:15;;;;;;;27.55;16.23;;;5.00;71.30;;;;;;5090767;28;20050;-67
2021/03/24 05:17:42;;;;;;;27.15;15.15;;;5.00;71.20;;;;;;5077667;28;20114;-68
2021/03/24 05:20:27;;;;;;;28.40;17.17;;;5.00;71.10;;;;;;5084067;28;20156;-68
2021/03/24 05:22:53;;;;;;;40.13;20.05;;;5.00;71.00;;;;;;5087449;28;20035;-68
2021/03/24 05:25:19;;;;;;;;;;;4.90;71.00;;;;;;5086138;28;20149;-68
2021/03/24 05:27:54;;;;;;;39.28;20.27;;;4.90;71.50;;;;;;5084253;28;19916;-68
2021/03/24 05:30:27;;;;;;;32.30;18.25;;;5.00;71.20;;;;;;5090356;28;20116;-68
2021/03/24 05:33:19;;;;;;;25.23;16.20;;;5.00;71.00;;;;;;5090304;28;20035;-67
2021/03/24 05:35:56;;;;;;;25.60;15.00;;;5.00;70.90;;;;;;5089593;28;20044;-68
2021/03/24 05:38:24;;;;;;;25.10;14.30;;;5.10;70.80;;;;;;5090189;28;20034;-68
2021/03/24 05:41:25;;;;;;;27.05;15.07;;;5.20;70.60;;;;;;5089995;28;20043;-68
2021/03/24 05:44:22;;;;;;;23.42;13.73;;;5.10;71.00;;;;;;5090128;28;20072;-68
2021/03/24 05:47:14;;;;;;;25.17;16.25;;;5.10;71.00;;;;;;5088532;28;20032;-67
2021/03/24 05:49:42;;;;;;;21.23;14.57;;;5.20;70.90;;;;;;5079068;28;20036;-70
2021/03/24 05:52:21;;;;;;;26.35;16.83;;;5.10;71.30;;;;;;5085996;28;20040;-68
2021/03/24 05:55:18;;;;;;;21.55;13.82;;;5.00;71.40;;;;;;5090093;28;20024;-68
2021/03/24 05:57:47;;;;;;;;;;;5.10;71.50;;;;;;5052251;28;20044;-68
2021/03/24 06:00:27;;;;;;;23.40;14.20;;;5.10;71.80;;;;;;5088500;28;19947;-68
2021/03/24 06:03:09;;;;;;;22.45;13.35;;;5.10;72.40;;;;;;5089451;28;20028;-67
2021/03/24 06:05:59;;;;;;;23.70;14.10;;;5.10;73.00;;;;;;5089861;28;20024;-68
2021/03/24 06:08:36;;;;;;;22.95;13.60;;;5.20;73.30;;;;;;5047973;28;20052;-67
2021/03/24 06:11:30;;;;;;;22.50;13.45;;;5.20;73.70;;;;;;5089622;28;20028;-68
2021/03/24 06:14:15;;;;;;;22.80;13.23;;;5.20;74.30;;;;;;5089721;28;20035;-67
2021/03/24 06:16:59;;;;;;;23.38;13.18;;;5.20;74.60;;;;;;5089381;28;20024;-67
2021/03/24 06:19:49;;;;;;;19.60;13.85;;;5.20;75.40;;;;;;5086136;28;20262;-68
2021/03/24 06:22:37;;;;;;;18.65;12.10;;;5.20;75.90;;;;;;5089313;28;20378;-68
2021/03/24 06:25:31;;;;;;;16.40;11.00;;;5.20;76.20;;;;;;5089267;28;20496;-68
2021/03/24 06:28:37;;;;;;;17.13;11.80;;;5.40;77.20;;;;;;5088750;28;20047;-68
2021/03/24 06:31:39;;;;;;;19.02;12.35;;;5.40;76.90;;;;;;5088147;28;20519;-67
2021/03/24 06:34:24;;;;;;;17.35;10.93;;;5.40;77.80;;;;;;5088895;28;20130;-67
2021/03/24 06:37:27;;;;;;;24.88;12.15;;;5.50;77.80;;;;;;5088964;28;20055;-66
2021/03/24 06:40:01;;;;;;;14.45;8.13;;;5.40;77.40;;;;;;5087577;28;20049;-67
2021/03/24 06:43:04;;;;;;;9.60;5.68;;;5.60;76.40;;;;;;5088661;28;20134;-68
2021/03/24 06:45:56;;;;;;;8.52;4.22;;;5.50;74.20;;;;;;5088817;28;20046;-67
2021/03/24 06:48:46;;;;;;;8.07;4.70;;;5.50;72.20;;;;;;5088790;28;20040;-67
2021/03/24 06:51:39;;;;;;;8.38;4.55;;;5.50;71.90;;;;;;5088694;28;20506;-67
2021/03/24 06:54:17;;;;;;;6.25;2.90;;;5.40;72.20;;;;;;5087335;28;20038;-68
2021/03/24 06:56:46;;;;;;;12.23;3.38;;;5.40;71.70;;;;;;5087493;28;20040;-67
2021/03/24 06:59:45;;;;;;;10.43;3.72;;;5.40;71.50;;;;;;5087064;28;20487;-67
2021/03/24 07:02:40;;;;;;;7.35;3.22;;;5.30;72.30;;;;;;5087415;28;20073;-68
2021/03/24 07:05:44;;;;;;;7.75;3.75;;;5.20;73.20;;;;;;5088475;28;20103;-68
2021/03/24 07:08:16;;;;;;;6.32;3.22;;;5.10;73.80;;;;;;5087776;28;20508;-68
2021/03/24 07:10:47;;;;;;;8.25;4.35;;;5.10;74.10;;;;;;5087215;28;20024;-68
2021/03/24 07:13:50;;;;;;;8.30;3.78;;;4.80;75.00;;;;;;5088202;28;20028;-68
2021/03/24 07:16:24;;;;;;;8.00;3.35;;;5.00;75.00;;;;;;5088263;28;20064;-67
2021/03/24 07:19:17;;;;;;;6.80;3.90;;;5.00;74.90;;;;;;5088268;28;20127;-69
2021/03/24 07:21:58;;;;;;;9.40;4.47;;;5.10;75.20;;;;;;5088299;28;20035;-67
2021/03/24 07:24:32;;;;;;;6.15;3.30;;;5.00;76.10;;;;;;5088273;28;20050;-67
2021/03/24 07:27:13;;;;;;;7.40;3.80;;;5.00;76.00;;;;;;5088106;28;20024;-67
2021/03/24 07:30:07;;;;;;;7.43;2.90;;;4.90;76.40;;;;;;5088268;28;20032;-67
2021/03/24 07:32:35;;;;;;;6.28;2.78;;;4.90;76.30;;;;;;5088276;28;20488;-67
2021/03/24 07:35:04;;;;;;;7.70;3.50;;;4.90;75.90;;;;;;5086827;28;20024;-66
2021/03/24 07:37:35;;;;;;;8.07;3.25;;;4.90;75.70;;;;;;5087866;28;20028;-68
2021/03/24 07:40:42;;;;;;;8.88;3.03;;;4.90;75.80;;;;;;5086754;28;20490;-67
2021/03/24 07:43:23;;;;;;;9.23;3.33;;;4.90;75.40;;;;;;4989130;28;20052;-67
2021/03/24 07:46:19;;;;;;;6.10;3.45;;;4.90;74.90;;;;;;4989128;28;20060;-67
2021/03/24 07:48:53;;;;;;;6.85;3.35;;;4.80;75.00;;;;;;5068668;28;20044;-67
2021/03/24 07:51:45;;;;;;;7.78;2.83;;;4.80;74.70;;;;;;5084975;28;20028;-68
2021/03/24 07:54:25;;;;;;;5.72;2.70;;;4.80;74.90;;;;;;5087776;28;20028;-68
2021/03/24 07:57:04;;;;;;;10.13;3.67;;;4.70;74.10;;;;;;5087802;28;20039;-68
2021/03/24 08:00:01;;;;;;;7.68;3.38;;;4.60;74.00;;;;;;5087370;28;20040;-67
2021/03/24 08:02:54;;;;;;;6.70;2.35;;;4.60;73.00;;;;;;5088332;28;20031;-66
2021/03/24 08:05:27;;;;;;;4.65;2.30;;;4.60;72.60;;;;;;5087768;28;20436;-67
2021/03/24 08:08:04;;;;;;;14.27;7.15;;;4.50;73.00;;;;;;5086427;28;20089;-68
2021/03/24 08:10:36;;;;;;;16.92;10.38;;;4.70;71.70;;;;;;5086447;28;20494;-67
2021/03/24 08:13:15;;;;;;;7.93;3.22;;;4.80;71.60;;;;;;5087703;28;20054;-67
2021/03/24 08:16:00;;;;;;;5.68;3.05;;;5.00;69.80;;;;;;5087732;28;20508;-67
2021/03/24 08:18:44;;;;;;;5.30;2.30;;;5.20;67.70;;;;;;5087824;28;20056;-67
2021/03/24 08:21:28;;;;;;;6.43;1.92;;;5.20;67.30;;;;;;5087569;28;20511;-68
2021/03/24 08:24:02;;;;;;;5.30;2.47;;;5.50;65.30;;;;;;5087630;28;20107;-68
2021/03/24 08:26:54;;;;;;;7.82;2.25;;;5.70;63.50;;;;;;5090410;28;20396;-68
2021/03/24 08:29:48;;;;;;;7.65;2.58;;;5.90;62.80;;;;;;5091353;28;20606;-67
2021/03/24 08:32:39;;;;;;;4.45;1.70;;;5.90;62.10;;;;;;5089932;28;20028;-67
2021/03/24 08:35:28;;;;;;;8.32;4.30;;;5.90;62.30;;;;;;5091313;28;20456;-66
2021/03/24 08:38:33;;;;;;;9.10;3.28;;;6.00;61.90;;;;;;5086887;28;20029;-68
2021/03/24 08:41:17;;;;;;;5.63;2.50;;;6.10;61.10;;;;;;5033557;28;20028;-68
2021/03/24 08:44:04;;;;;;;6.25;1.85;;;6.10;59.40;;;;;;5069575;28;20033;-68
2021/03/24 08:49:20;;;;;;;4.78;2.15;;;5.70;58.90;;;;;;5084134;28;20423;-67
2021/03/24 08:51:51;;;;;;;3.60;1.70;;;5.60;60.70;;;;;;5075788;28;20077;-68
2021/03/24 08:54:39;;;;;;;3.90;1.92;;;5.70;60.20;;;;;;5081848;28;20438;-68
2021/03/24 08:57:29;;;;;;;4.47;1.85;;;5.60;59.90;;;;;;5062295;28;20044;-67
2021/03/24 08:59:57;;;;;;;3.47;1.83;;;5.60;59.10;;;;;;5085248;28;20434;-67
2021/03/24 09:02:47;;;;;;;8.57;2.35;;;5.50;59.80;;;;;;5076316;28;20048;-68
2021/03/24 09:05:30;;;;;;;6.32;2.72;;;5.50;59.70;;;;;;5060953;28;20040;-67
2021/03/24 09:08:14;;;;;;;5.95;3.03;;;5.60;60.10;;;;;;5064837;28;20032;-67
2021/03/24 09:11:15;;;;;;;8.23;3.90;;;5.60;58.70;;;;;;5063267;28;20029;-68
2021/03/24 09:14:06;;;;;;;6.78;3.78;;;5.80;58.70;;;;;;5053712;28;20416;-67
2021/03/24 09:17:09;;;;;;;8.50;4.15;;;6.00;57.10;;;;;;5064547;28;20089;-68
2021/03/24 09:20:12;;;;;;;12.77;5.20;;;6.10;57.40;;;;;;5081032;28;20115;-68
2021/03/24 09:23:14;;;;;;;9.63;5.28;;;6.20;57.50;;;;;;5079952;28;20020;-67
2021/03/24 09:25:50;;;;;;;7.57;3.58;;;6.20;57.90;;;;;;5074661;28;20032;-68
2021/03/24 09:28:47;;;;;;;6.68;3.75;;;6.30;57.00;;;;;;5062874;28;20147;-68
2021/03/24 09:31:46;;;;;;;5.03;2.87;;;6.40;56.70;;;;;;5064313;28;20028;-68
2021/03/24 09:34:43;;;;;;;4.35;2.38;;;6.50;55.50;;;;;;5064096;28;20061;-68
2021/03/24 09:37:16;;;;;;;8.75;3.28;;;6.80;55.30;;;;;;5063982;28;20064;-67
2021/03/24 09:39:50;;;;;;;5.38;2.78;;;7.10;54.30;;;;;;5064001;28;20059;-68
2021/03/24 09:42:39;;;;;;;6.25;3.38;;;7.30;53.20;;;;;;5063776;28;20423;-66
2021/03/24 09:45:21;;;;;;;5.07;2.60;;;7.50;53.70;;;;;;5063755;28;20052;-68
2021/03/24 09:48:04;;;;;;;8.18;4.80;;;7.90;52.20;;;;;;5062088;28;20098;-67
2021/03/24 09:51:06;;;;;;;4.72;2.22;;;7.80;52.90;;;;;;5062362;28;20047;-67
2021/03/24 09:53:38;;;;;;;8.32;3.65;;;8.10;51.80;;;;;;5062225;28;20025;-66
2021/03/24 09:56:06;;;;;;;7.18;3.28;;;8.50;50.90;;;;;;5063669;28;20051;-67
2021/03/24 09:59:00;;;;;;;5.97;3.30;;;8.40;51.10;;;;;;5060981;28;20032;-67
2021/03/24 10:01:46;;;;;;;6.93;2.53;;;8.50;50.70;;;;;;5050032;28;20041;-67
2021/03/24 10:04:30;;;;;;;7.13;3.58;;;8.60;49.80;;;;;;5048804;28;20025;-68
2021/03/24 10:07:10;;;;;;;7.70;4.55;;;8.30;51.60;;;;;;5050263;28;20032;-68
2021/03/24 10:10:00;;;;;;;8.38;3.45;;;8.00;52.20;;;;;;5050262;28;20029;-68
2021/03/24 10:12:50;;;;;;;7.30;3.90;;;8.00;52.70;;;;;;5050386;28;20070;-68
2021/03/24 10:15:38;;;;;;;7.38;3.65;;;7.80;53.80;;;;;;5050031;28;20043;-67
2021/03/24 10:18:14;;;;;;;5.65;2.80;;;7.60;54.50;;;;;;5050100;28;20397;-68
2021/03/24 10:20:54;;;;;;;5.72;2.45;;;7.50;54.80;;;;;;5048147;28;20082;-69
2021/03/24 10:23:40;;;;;;;7.38;3.92;;;7.50;55.50;;;;;;5049565;28;20029;-67
2021/03/24 10:26:23;;;;;;;5.28;3.03;;;7.70;55.60;;;;;;5049809;28;20078;-68
2021/03/24 10:29:09;;;;;;;6.45;3.15;;;7.40;56.20;;;;;;5048236;28;20469;-67
2021/03/24 10:31:55;;;;;;;8.48;4.38;;;7.50;56.20;;;;;;5048050;28;20033;-67
2021/03/24 10:34:43;;;;;;;9.07;3.83;;;7.60;56.20;;;;;;5049114;28;20088;-68
2021/03/24 10:37:46;;;;;;;5.75;3.30;;;7.60;56.50;;;;;;5048659;28;20358;-67
2021/03/24 10:40:30;;;;;;;6.25;3.10;;;7.70;56.50;;;;;;5048818;28;20032;-68
2021/03/24 10:43:19;;;;;;;6.38;2.90;;;7.90;56.50;;;;;;5048901;28;20124;-68
2021/03/24 10:46:03;;;;;;;6.53;3.25;;;8.00;56.70;;;;;;5049126;28;20036;-67
2021/03/24 10:48:41;;;;;;;7.15;3.63;;;8.00;56.30;;;;;;5048633;28;20125;-68
2021/03/24 10:51:25;;;;;;;6.10;3.05;;;8.30;56.00;;;;;;5048702;28;20021;-67
2021/03/24 10:54:12;;;;;;;6.50;2.83;;;8.60;54.50;;;;;;5048712;28;20051;-67
2021/03/24 10:56:56;;;;;;;4.25;2.92;;;8.80;53.70;;;;;;5048994;28;20440;-68
2021/03/24 10:59:47;;;;;;;7.40;3.40;;;8.90;53.40;;;;;;5049132;28;20032;-68
2021/03/24 11:02:40;;;;;;;9.23;3.00;;;9.00;52.90;;;;;;5047871;28;20409;-67
2021/03/24 11:05:13;;;;;;;6.78;2.67;;;9.20;52.30;;;;;;5047224;28;20029;-68
2021/03/24 11:07:52;;;;;;;5.22;2.83;;;9.10;52.40;;;;;;5048593;28;20055;-67
2021/03/24 11:10:36;;;;;;;5.65;3.13;;;9.40;51.80;;;;;;5048636;28;20040;-68
2021/03/24 11:13:09;;;;;;;7.70;2.80;;;9.60;50.80;;;;;;5048979;28;20071;-68
2021/03/24 11:15:38;;;;;;;5.80;3.38;;;9.60;50.00;;;;;;5048919;28;20055;-68
2021/03/24 11:18:13;;;;;;;5.25;3.00;;;9.60;50.80;;;;;;5048981;28;20032;-68
2021/03/24 11:21:00;;;;;;;6.88;3.20;;;9.40;50.70;;;;;;5047745;28;20036;-68
2021/03/24 11:23:46;;;;;;;5.78;3.50;;;9.20;51.50;;;;;;5048642;28;20040;-67
2021/03/24 11:26:24;;;;;;;8.10;3.53;;;9.10;51.70;;;;;;5048706;28;20037;-68
2021/03/24 11:28:56;;;;;;;16.02;4.25;;;8.90;53.20;;;;;;5048744;28;20029;-68
2021/03/24 11:31:48;;;;;;;8.98;5.53;;;8.80;53.80;;;;;;5048678;28;20044;-67
2021/03/24 11:34:43;;;;;;;13.68;8.18;;;8.90;54.00;;;;;;5048777;28;20397;-67
2021/03/24 11:37:47;;;;;;;17.02;10.45;;;8.90;54.10;;;;;;5046440;28;20045;-68
2021/03/24 11:40:30;;;;;;;7.68;4.30;;;9.00;54.20;;;;;;5048452;28;20489;-68
2021/03/24 11:42:59;;;;;;;39.17;23.77;;;9.00;54.00;;;;;;5048556;28;20579;-68
2021/03/24 11:45:28;;;;;;;22.15;11.30;;;9.00;54.30;;;;;;5048402;28;20504;-69
2021/03/24 11:48:00;;;;;;;11.73;6.05;;;9.00;54.00;;;;;;5046897;28;20490;-68
2021/03/24 11:50:35;;;;;;;6.68;3.97;;;9.00;54.40;;;;;;5048382;28;20370;-67
2021/03/24 11:53:20;;;;;;;5.28;3.30;;;9.10;54.10;;;;;;5048204;28;20029;-68
2021/03/24 11:55:57;;;;;;;6.47;3.80;;;9.20;53.90;;;;;;5048403;28;20449;-68
2021/03/24 11:58:44;;;;;;;9.23;4.38;;;9.20;53.50;;;;;;5048273;28;20033;-68
2021/03/24 12:01:12;;;;;;;9.15;4.32;;;9.00;54.10;;;;;;5048128;28;20033;-67
2021/03/24 12:03:52;;;;;;;16.83;10.35;;;9.00;54.70;;;;;;5048133;28;20029;-68
2021/03/24 12:07:08;;;;;;;34.30;19.15;;;9.00;55.10;;;;;;5048041;28;20562;-68
2021/03/24 12:09:37;;;;;;;15.93;8.95;;;9.00;55.20;;;;;;4986160;28;20133;-68
2021/03/24 12:12:09;;;;;;;12.70;6.25;;;8.90;55.30;;;;;;5041847;28;20425;-68
2021/03/24 12:14:36;;;;;;;9.93;5.95;;;8.90;55.60;;;;;;5048054;28;20028;-68
2021/03/24 12:17:05;;;;;;;14.68;8.77;;;8.90;55.80;;;;;;5047921;28;20025;-68
2021/03/24 12:19:33;;;;;;;23.75;12.98;;;8.80;55.70;;;;;;5048016;28;20086;-69
2021/03/24 12:22:12;;;;;;;17.90;10.05;;;8.80;56.00;;;;;;5047841;28;20064;-68
2021/03/24 12:24:39;;;;;;;17.98;9.07;;;8.70;56.40;;;;;;5047934;28;20041;-68
2021/03/24 12:27:18;;;;;;;11.38;7.25;;;8.60;56.70;;;;;;5046421;28;20120;-68
2021/03/24 12:30:00;;;;;;;13.98;8.27;;;8.60;56.90;;;;;;5047867;28;20029;-68
2021/03/24 12:32:30;;;;;;;17.35;8.35;;;8.50;57.60;;;;;;5047777;28;20052;-68
2021/03/24 12:34:57;;;;;;;20.77;10.90;;;8.40;57.80;;;;;;5047570;28;20052;-68
2021/03/24 12:37:38;;;;;;;18.48;10.38;;;8.40;57.90;;;;;;5047428;28;20032;-67
2021/03/24 12:40:18;;;;;;;17.05;7.72;;;8.40;57.60;;;;;;5046178;28;20032;-68
2021/03/24 12:42:45;;;;;;;15.55;9.13;;;8.40;57.80;;;;;;5046097;28;20505;-68
2021/03/24 12:45:38;;;;;;;24.27;9.30;;;8.20;58.20;;;;;;5047227;28;20025;-67
2021/03/24 12:48:08;;;;;;;15.18;8.27;;;8.20;58.70;;;;;;5047444;28;20067;-68
2021/03/24 12:50:40;;;;;;;21.77;8.43;;;8.20;58.80;;;;;;5047548;28;20485;-67
2021/03/24 12:53:21;;;;;;;19.83;12.10;;;8.20;59.10;;;;;;5047482;28;20489;-67
2021/03/24 12:56:03;;;;;;;18.92;8.20;;;8.10;59.10;;;;;;5047525;28;20104;-68
2021/03/24 12:58:46;;;;;;;82.07;11.73;;;8.10;59.50;;;;;;5047674;28;20873;-68
2021/03/24 13:01:19;;;;;;;45.97;13.27;;;8.10;59.70;;;;;;5047526;28;20536;-66
2021/03/24 13:03:56;;;;;;;18.02;9.73;;;8.10;60.20;;;;;;5047368;28;20583;-68
2021/03/24 13:06:50;;;;;;;16.92;8.32;;;8.10;59.80;;;;;;5047544;28;20037;-68
2021/03/24 13:09:24;;;;;;;23.55;8.10;;;8.10;59.90;;;;;;5027627;28;20033;-68
2021/03/24 13:12:14;;;;;;;29.33;12.30;;;8.10;59.60;;;;;;5047394;28;20104;-68
2021/03/24 13:15:04;;;;;;;16.33;9.73;;;8.00;59.50;;;;;;5045893;28;20025;-68
2021/03/24 13:17:51;;;;;;;11.85;8.18;;;8.00;59.90;;;;;;5047228;28;20025;-68
2021/03/24 13:20:26;;;;;;;20.35;8.77;;;8.00;60.50;;;;;;5047283;28;20036;-68
2021/03/24 13:22:54;;;;;;;14.43;8.27;;;8.00;61.00;;;;;;5047218;28;20025;-68
2021/03/24 13:25:47;;;;;;;20.25;8.57;;;8.00;61.10;;;;;;5047104;28;20064;-68
2021/03/24 13:28:34;;;;;;;15.05;7.80;;;8.00;61.50;;;;;;5039872;28;20086;-68
2021/03/24 13:31:32;;;;;;;12.98;9.13;;;8.00;62.00;;;;;;5047355;28;20025;-68
2021/03/24 13:34:11;;;;;;;15.95;9.02;;;7.90;62.40;;;;;;5047484;28;20044;-68
2021/03/24 13:36:59;;;;;;;29.70;9.07;;;7.90;62.70;;;;;;5050992;28;20052;-68
2021/03/24 13:39:28;;;;;;;23.65;10.73;;;7.90;63.60;;;;;;5050864;28;20044;-68
2021/03/24 13:42:02;;;;;;;17.98;10.80;;;7.80;63.10;;;;;;5050995;28;20025;-69
2021/03/24 13:44:43;;;;;;;16.23;10.40;;;7.80;63.20;;;;;;5050913;28;20248;-68
2021/03/24 13:47:19;;;;;;;18.55;10.82;;;7.80;63.80;;;;;;5050463;28;20045;-68
2021/03/24 13:50:10;;;;;;;16.10;10.40;;;7.80;63.80;;;;;;5050817;28;20037;-68
2021/03/24 13:52:52;;;;;;;22.52;13.55;;;7.80;64.00;;;;;;5050681;28;20041;-69